Anchorage/Merrill Field, Alaska
Current Conditions -  °F | °C
As of 7:53 PM on Wednesday 17 Dec 2014 (Local Time) from PAMR Reporting Station
Clear Clear  
Wind Chill: 25°   Ceiling: Unl
Heat Index: 25°   Visibility: 9mi
Dew Point: 21°   Wind: 3mph
Humidity: 85%   Direction: 10°N
Pressure: 29.58"   Gusts: NA
Location:  61.21°N, 149.85°W
Report Text: PAMR 180453Z 01003KT 9SM CLR M04/M06 A2958 RMK AO2 SLP018 T10391061
Loading
Personal Weather Stations






























Interactive Weather Map New forecast layout! Learn more

10-Day Weather Forecast

Advertisements
Track Severe Weather on mobile